createdAt,value
2017-10-10T00:01:08.226Z,6.97
2017-10-10T00:03:35.762Z,6.00
2017-10-10T00:06:03.283Z,6.68
2017-10-10T00:08:31.031Z,6.55
2017-10-10T00:10:58.576Z,6.18
2017-10-10T00:13:26.237Z,7.75
2017-10-10T00:15:54.002Z,6.57
2017-10-10T00:18:21.560Z,6.60
2017-10-10T00:20:49.121Z,6.53
2017-10-10T00:23:16.987Z,6.05
2017-10-10T00:25:44.553Z,6.35
2017-10-10T00:28:12.105Z,6.78
2017-10-10T00:30:40.073Z,6.65
2017-10-10T00:33:07.632Z,6.12
2017-10-10T00:35:35.192Z,6.40
2017-10-10T00:38:03.038Z,4.90
2017-10-10T00:40:30.550Z,6.45
2017-10-10T00:42:58.075Z,5.60
2017-10-10T00:45:25.815Z,6.28
2017-10-10T00:47:53.328Z,5.45
2017-10-10T00:50:20.871Z,6.60
2017-10-10T00:52:48.420Z,6.30
2017-10-10T00:55:15.927Z,6.30
2017-10-10T00:57:43.444Z,6.87
2017-10-10T01:00:11.397Z,6.05
2017-10-10T01:02:38.956Z,6.03
2017-10-10T01:05:06.466Z,6.05
2017-10-10T01:07:34.140Z,7.80
2017-10-10T01:10:01.659Z,5.87
2017-10-10T01:12:29.195Z,7.47
2017-10-10T01:14:57.039Z,6.20
2017-10-10T01:17:24.559Z,7.45
2017-10-10T01:19:52.088Z,6.70
2017-10-10T01:22:19.736Z,6.93
2017-10-10T01:24:47.271Z,6.85
2017-10-10T01:27:14.789Z,6.87
2017-10-10T01:29:42.570Z,8.50
2017-10-10T01:32:10.099Z,7.97
2017-10-10T01:34:37.633Z,8.20
2017-10-10T01:37:05.398Z,8.55
2017-10-10T01:39:32.938Z,8.20
2017-10-10T01:42:00.454Z,9.00
2017-10-10T01:44:28.178Z,7.75
2017-10-10T01:46:55.736Z,7.70
2017-10-10T01:49:23.247Z,8.32
2017-10-10T01:51:50.956Z,8.38
2017-10-10T01:54:18.471Z,8.82
2017-10-10T01:56:45.986Z,8.63
2017-10-10T01:59:13.551Z,7.70
2017-10-10T02:01:41.091Z,7.78
2017-10-10T02:04:08.651Z,8.15
2017-10-10T02:06:36.209Z,7.80
2017-10-10T02:09:03.754Z,8.32
2017-10-10T02:11:31.332Z,7.53
2017-10-10T02:13:59.295Z,7.40
2017-10-10T02:16:26.866Z,7.03
2017-10-10T02:18:54.432Z,6.60
2017-10-10T02:21:22.163Z,7.90
2017-10-10T02:23:49.736Z,8.10
2017-10-10T02:26:17.256Z,7.30
2017-10-10T02:28:45.162Z,7.95
2017-10-10T02:31:12.721Z,7.72
2017-10-10T02:33:40.281Z,8.02
2017-10-10T02:36:08.122Z,8.77
2017-10-10T02:38:35.639Z,8.70
2017-10-10T02:41:03.165Z,8.70
2017-10-10T02:43:30.926Z,6.95
2017-10-10T02:45:58.488Z,8.05
2017-10-10T02:48:26.053Z,7.40
2017-10-10T02:50:53.894Z,7.12
2017-10-10T02:53:21.406Z,7.95
2017-10-10T02:55:49.028Z,7.55
2017-10-10T02:58:16.585Z,7.57
2017-10-10T03:00:44.150Z,7.95
2017-10-10T03:03:11.706Z,7.55
2017-10-10T03:05:39.446Z,8.07
2017-10-10T03:08:06.967Z,7.20
2017-10-10T03:10:34.486Z,8.32
2017-10-10T03:13:02.186Z,7.78
2017-10-10T03:15:29.707Z,9.05
2017-10-10T03:17:57.267Z,7.45
2017-10-10T03:20:25.028Z,7.90
2017-10-10T03:22:52.589Z,7.20
2017-10-10T03:25:20.106Z,7.80
2017-10-10T03:27:48.833Z,8.43
2017-10-10T03:30:16.352Z,8.35
2017-10-10T03:32:43.868Z,7.80
2017-10-10T03:35:11.618Z,6.85
2017-10-10T03:37:39.139Z,7.10
2017-10-10T03:40:06.667Z,7.65
2017-10-10T03:42:34.315Z,7.22
2017-10-10T03:45:01.835Z,7.60
2017-10-10T03:47:29.374Z,7.28
2017-10-10T03:49:57.274Z,6.80
2017-10-10T03:52:24.835Z,7.95
2017-10-10T03:54:52.401Z,7.28
2017-10-10T03:57:20.157Z,6.57
2017-10-10T03:59:47.679Z,7.75
2017-10-10T04:02:15.186Z,8.18
2017-10-10T04:04:42.836Z,7.87
2017-10-10T04:07:10.359Z,8.20
2017-10-10T04:09:37.867Z,7.60
2017-10-10T04:12:05.723Z,7.57
2017-10-10T04:14:33.243Z,7.18
2017-10-10T04:17:00.754Z,6.55
2017-10-10T04:19:28.578Z,7.90
2017-10-10T04:21:56.261Z,9.07
2017-10-10T04:24:23.821Z,8.63
2017-10-10T04:26:51.562Z,9.02
2017-10-10T04:29:19.084Z,9.23
2017-10-10T04:31:46.600Z,7.15
2017-10-10T04:34:14.546Z,8.35
2017-10-10T04:36:42.058Z,9.00
2017-10-10T04:39:09.591Z,7.82
2017-10-10T04:41:37.347Z,8.70
2017-10-10T04:44:04.905Z,9.70
2017-10-10T04:46:32.467Z,8.82
2017-10-10T04:49:00.202Z,9.18
2017-10-10T04:51:27.723Z,8.30
2017-10-10T04:53:55.255Z,8.52
2017-10-10T04:56:23.114Z,9.55
2017-10-10T04:58:50.631Z,8.25
2017-10-10T05:01:18.142Z,8.43
2017-10-10T05:03:45.818Z,8.48
2017-10-10T05:06:13.347Z,7.72
2017-10-10T05:08:40.907Z,8.00
2017-10-10T05:11:08.474Z,8.23
2017-10-10T05:13:36.024Z,8.40
2017-10-10T05:16:03.585Z,7.70
2017-10-10T05:18:31.326Z,8.40
2017-10-10T05:20:58.844Z,8.38
2017-10-10T05:23:26.363Z,8.30
2017-10-10T05:25:53.931Z,8.98
2017-10-10T05:28:21.446Z,7.75
2017-10-10T05:30:48.971Z,6.85
2017-10-10T05:33:16.804Z,7.35
2017-10-10T05:35:44.365Z,7.45
2017-10-10T05:38:11.922Z,7.15
2017-10-10T05:40:39.688Z,6.75
2017-10-10T05:43:07.246Z,7.10
2017-10-10T05:45:34.805Z,6.25
2017-10-10T05:48:02.373Z,6.62
2017-10-10T05:50:29.924Z,6.57
2017-10-10T05:52:57.442Z,6.07
2017-10-10T05:55:25.254Z,6.12
2017-10-10T05:57:52.771Z,6.00
2017-10-10T06:00:20.291Z,5.90
2017-10-10T06:02:48.032Z,6.00
2017-10-10T06:05:15.583Z,5.68
2017-10-10T06:07:43.111Z,5.72
2017-10-10T06:10:10.703Z,5.37
2017-10-10T06:12:39.110Z,6.15
2017-10-10T06:15:06.634Z,5.87
2017-10-10T06:17:34.200Z,5.30
2017-10-10T06:20:01.758Z,5.12
2017-10-10T06:22:29.317Z,5.62
2017-10-10T06:24:57.161Z,5.20
2017-10-10T06:27:24.683Z,6.00
2017-10-10T06:29:52.204Z,3.62
2017-10-10T06:32:19.935Z,5.55
2017-10-10T06:34:47.467Z,5.70
2017-10-10T06:37:14.995Z,6.15
2017-10-10T06:39:42.718Z,5.95
2017-10-10T06:42:10.239Z,5.30
2017-10-10T06:44:37.763Z,5.20
2017-10-10T06:47:05.330Z,6.28
2017-10-10T06:49:32.876Z,6.53
2017-10-10T06:52:00.437Z,6.20
2017-10-10T06:54:28.301Z,6.20
2017-10-10T06:56:56.066Z,5.35
2017-10-10T06:59:23.626Z,4.90
2017-10-10T07:01:51.288Z,5.12
2017-10-10T07:04:18.852Z,6.07
2017-10-10T07:06:46.404Z,4.90
2017-10-10T07:09:14.148Z,4.60
2017-10-10T07:11:41.662Z,4.93
2017-10-10T07:14:09.186Z,5.40
2017-10-10T07:16:36.847Z,4.72
2017-10-10T07:19:04.414Z,5.03
2017-10-10T07:21:32.067Z,4.10
2017-10-10T07:23:59.814Z,5.43
2017-10-10T07:26:27.322Z,6.20
2017-10-10T07:28:54.850Z,4.57
2017-10-10T07:31:22.414Z,4.35
2017-10-10T07:33:49.964Z,4.82
2017-10-10T07:36:17.476Z,5.50
2017-10-10T07:38:45.288Z,3.80
2017-10-10T07:41:12.891Z,3.60
2017-10-10T07:43:40.422Z,5.00
2017-10-10T07:46:08.271Z,4.20
2017-10-10T07:48:35.833Z,4.80
2017-10-10T07:51:03.390Z,5.22
2017-10-10T07:53:31.382Z,4.85
2017-10-10T07:55:58.943Z,4.53
2017-10-10T07:58:26.451Z,4.30
2017-10-10T08:00:54.215Z,4.70
2017-10-10T08:03:21.800Z,5.00
2017-10-10T08:05:49.360Z,4.60
2017-10-10T08:08:17.202Z,5.10
2017-10-10T08:10:44.716Z,4.77
2017-10-10T08:13:12.246Z,4.83
2017-10-10T08:15:40.186Z,4.73
2017-10-10T08:18:07.696Z,4.23
2017-10-10T08:20:35.215Z,4.10
2017-10-10T08:23:02.768Z,5.30
2017-10-10T08:25:30.279Z,4.23
2017-10-10T08:27:57.800Z,4.17
2017-10-10T08:30:25.677Z,4.30
2017-10-10T08:32:53.207Z,4.67
2017-10-10T08:35:20.715Z,4.30
2017-10-10T08:37:48.456Z,3.40
2017-10-10T08:40:16.005Z,4.37
2017-10-10T08:42:43.565Z,4.17
2017-10-10T08:45:11.329Z,4.67
2017-10-10T08:47:38.847Z,4.30
2017-10-10T08:50:06.360Z,3.60
2017-10-10T08:52:34.108Z,3.93
2017-10-10T08:55:01.685Z,4.00
2017-10-10T08:57:29.192Z,4.70
2017-10-10T08:59:57.072Z,4.00
2017-10-10T09:02:24.644Z,3.97
2017-10-10T09:04:52.162Z,4.60
2017-10-10T09:07:19.994Z,5.10
2017-10-10T09:09:47.519Z,4.30
2017-10-10T09:12:15.046Z,4.97
2017-10-10T09:14:42.595Z,4.97
2017-10-10T09:17:10.133Z,4.00
2017-10-10T09:19:37.667Z,4.73
2017-10-10T09:22:05.448Z,4.40
2017-10-10T09:24:32.990Z,5.67
2017-10-10T09:27:00.565Z,4.60
2017-10-10T09:29:28.223Z,4.63
2017-10-10T09:31:55.730Z,3.30
2017-10-10T09:34:24.249Z,4.00
2017-10-10T09:36:51.894Z,4.03
2017-10-10T09:39:19.410Z,3.83
2017-10-10T09:41:46.928Z,4.80
2017-10-10T09:44:14.780Z,3.70
2017-10-10T09:46:42.352Z,3.90
2017-10-10T09:49:09.866Z,4.60
2017-10-10T09:51:38.291Z,4.03
2017-10-10T09:54:05.854Z,3.43
2017-10-10T09:56:33.412Z,4.13
2017-10-10T09:59:00.967Z,4.03
2017-10-10T10:01:28.475Z,3.80
2017-10-10T10:03:57.011Z,3.20
2017-10-10T10:06:25.124Z,3.20
2017-10-10T10:08:52.978Z,3.87
2017-10-10T10:11:20.505Z,3.03
2017-10-10T10:13:48.067Z,3.03
2017-10-10T10:16:15.624Z,3.57
2017-10-10T10:18:43.130Z,2.90
2017-10-10T10:21:10.675Z,2.77
2017-10-10T10:23:38.282Z,2.70
2017-10-10T10:26:05.798Z,2.70
2017-10-10T10:28:33.530Z,2.40
2017-10-10T10:31:01.081Z,2.30
2017-10-10T10:33:28.589Z,2.40
2017-10-10T10:35:56.284Z,2.27
2017-10-10T10:38:23.795Z,2.00
2017-10-10T10:40:51.316Z,1.83
2017-10-10T10:43:19.083Z,2.27
2017-10-10T10:45:46.591Z,1.93
2017-10-10T10:48:14.108Z,1.73
2017-10-10T10:50:41.839Z,1.87
2017-10-10T10:53:09.359Z,2.07
2017-10-10T10:55:36.866Z,1.60
2017-10-10T10:58:04.502Z,2.10
2017-10-10T11:00:32.011Z,1.53
2017-10-10T11:02:59.553Z,2.00
2017-10-10T11:05:27.257Z,2.30
2017-10-10T11:07:54.774Z,1.50
2017-10-10T11:10:22.285Z,1.90
2017-10-10T11:12:50.008Z,1.83
2017-10-10T11:15:17.554Z,1.40
2017-10-10T11:17:45.114Z,1.63
2017-10-10T11:20:12.880Z,1.37
2017-10-10T11:22:40.437Z,1.40
2017-10-10T11:25:07.961Z,1.50
2017-10-10T11:27:35.757Z,1.90
2017-10-10T11:30:03.271Z,1.90
2017-10-10T11:32:30.778Z,1.93
2017-10-10T11:34:58.437Z,1.30
2017-10-10T11:37:25.951Z,1.50
2017-10-10T11:39:53.556Z,1.57
2017-10-10T11:42:21.319Z,1.93
2017-10-10T11:44:48.879Z,1.90
2017-10-10T11:47:16.437Z,1.80
2017-10-10T11:49:44.008Z,1.50
2017-10-10T11:52:11.554Z,1.70
2017-10-10T11:54:39.116Z,1.57
2017-10-10T11:57:06.980Z,1.80
2017-10-10T11:59:34.540Z,1.80
2017-10-10T12:02:02.099Z,1.70
2017-10-10T12:04:29.843Z,1.73
2017-10-10T12:06:57.358Z,1.60
2017-10-10T12:09:24.983Z,2.27
2017-10-10T12:11:52.719Z,1.70
2017-10-10T12:14:20.230Z,1.90
2017-10-10T12:16:47.862Z,1.83
2017-10-10T12:19:15.826Z,1.80
2017-10-10T12:21:43.338Z,2.47
2017-10-10T12:24:10.853Z,2.33
2017-10-10T12:26:38.400Z,2.10
2017-10-10T12:29:05.963Z,2.03
2017-10-10T12:31:33.526Z,2.23
2017-10-10T12:34:01.099Z,2.70
2017-10-10T12:36:28.644Z,3.13
2017-10-10T12:38:56.152Z,3.27
2017-10-10T12:41:23.864Z,2.37
2017-10-10T12:43:52.344Z,2.30
2017-10-10T12:46:19.851Z,2.60
2017-10-10T12:48:47.667Z,2.97
2017-10-10T12:51:15.226Z,2.03
2017-10-10T12:53:42.737Z,3.13
2017-10-10T12:56:10.651Z,2.93
2017-10-10T12:58:38.159Z,2.27
2017-10-10T13:01:05.675Z,2.20
2017-10-10T13:03:33.230Z,1.67
2017-10-10T13:06:00.795Z,2.40
2017-10-10T13:08:28.302Z,2.90
2017-10-10T13:10:56.220Z,1.90
2017-10-10T13:13:23.739Z,2.67
2017-10-10T13:15:51.255Z,2.60
2017-10-10T13:18:18.970Z,2.57
2017-10-10T13:20:46.652Z,2.60
2017-10-10T13:23:14.165Z,2.83
2017-10-10T13:25:41.723Z,2.40
2017-10-10T13:28:09.234Z,2.47
2017-10-10T13:30:36.742Z,2.87
2017-10-10T13:33:04.523Z,2.73
2017-10-10T13:35:32.035Z,3.37
2017-10-10T13:37:59.586Z,3.77
2017-10-10T13:40:27.139Z,3.10
2017-10-10T13:42:54.689Z,3.77
2017-10-10T13:45:22.245Z,3.47
2017-10-10T13:47:50.108Z,2.80
2017-10-10T13:50:17.669Z,4.00
2017-10-10T13:52:45.324Z,3.17
2017-10-10T13:55:13.102Z,3.60
2017-10-10T13:57:40.654Z,3.70
2017-10-10T14:00:08.227Z,4.40
2017-10-10T14:02:36.292Z,4.27
2017-10-10T14:05:04.024Z,4.33
2017-10-10T14:07:31.616Z,3.80
2017-10-10T14:09:59.450Z,3.33
2017-10-10T14:12:27.146Z,3.03
2017-10-10T14:14:54.656Z,3.73
2017-10-10T14:17:22.323Z,3.30
2017-10-10T14:19:49.844Z,2.47
2017-10-10T14:22:17.363Z,2.77
2017-10-10T14:24:45.118Z,2.80
2017-10-10T14:27:12.632Z,3.37
2017-10-10T14:29:40.252Z,2.87
2017-10-10T14:32:08.428Z,2.90
2017-10-10T14:34:36.003Z,2.40
2017-10-10T14:37:03.528Z,3.63
2017-10-10T14:39:31.617Z,2.70
2017-10-10T14:41:59.277Z,2.67
2017-10-10T14:44:26.904Z,1.90
2017-10-10T14:46:54.480Z,2.93
2017-10-10T14:49:22.000Z,2.10
2017-10-10T14:51:49.514Z,2.50
2017-10-10T14:54:17.290Z,2.27
2017-10-10T14:56:44.865Z,2.07
2017-10-10T14:59:12.382Z,3.00
2017-10-10T15:01:40.057Z,3.53
2017-10-10T15:04:07.627Z,1.93
2017-10-10T15:06:35.173Z,2.20
2017-10-10T15:09:02.819Z,2.50
2017-10-10T15:11:30.359Z,1.50
2017-10-10T15:13:57.955Z,1.93
2017-10-10T15:16:25.702Z,2.00
2017-10-10T15:18:53.278Z,3.50
2017-10-10T15:21:20.842Z,2.17
2017-10-10T15:23:48.387Z,3.50
2017-10-10T15:26:15.907Z,4.90
2017-10-10T15:28:43.418Z,2.30
2017-10-10T15:31:11.277Z,3.23
2017-10-10T15:33:39.962Z,3.07
2017-10-10T15:36:07.479Z,2.27
2017-10-10T15:38:35.472Z,1.70
2017-10-10T15:41:02.988Z,1.90
2017-10-10T15:43:30.553Z,2.20
2017-10-10T15:45:58.183Z,1.80
2017-10-10T15:48:25.727Z,1.80
2017-10-10T15:50:53.246Z,1.87
2017-10-10T15:53:20.925Z,1.70
2017-10-10T15:55:48.447Z,1.60
2017-10-10T15:58:15.990Z,1.50
2017-10-10T16:00:44.240Z,1.80
2017-10-10T16:03:12.004Z,1.60
2017-10-10T16:05:39.555Z,1.80
2017-10-10T16:08:07.583Z,2.20
2017-10-10T16:10:35.505Z,1.93
2017-10-10T16:13:03.425Z,1.50
2017-10-10T16:15:31.753Z,1.60
2017-10-10T16:17:59.713Z,2.47
2017-10-10T16:20:27.330Z,2.30
2017-10-10T16:22:56.164Z,2.50
2017-10-10T16:25:24.851Z,2.10
2017-10-10T16:27:52.662Z,2.37
2017-10-10T16:30:20.994Z,2.73
2017-10-10T16:32:48.754Z,3.30
2017-10-10T16:35:16.520Z,3.90
2017-10-10T16:37:44.488Z,5.53
2017-10-10T16:40:12.371Z,4.23
2017-10-10T16:42:41.413Z,5.20
2017-10-10T16:45:09.569Z,5.23
2017-10-10T16:47:37.385Z,4.93
2017-10-10T16:50:05.116Z,5.77
2017-10-10T16:52:33.200Z,6.30
2017-10-10T16:55:00.986Z,5.50
2017-10-10T16:57:28.751Z,3.70
2017-10-10T16:59:56.737Z,3.07
2017-10-10T17:02:24.629Z,4.47
2017-10-10T17:04:53.423Z,5.17
2017-10-10T17:07:21.647Z,5.20
2017-10-10T17:09:52.586Z,6.00
2017-10-10T17:12:20.656Z,6.27
2017-10-10T17:14:48.525Z,4.30
2017-10-10T17:17:16.404Z,5.07
2017-10-10T17:19:44.186Z,4.50
2017-10-10T17:22:11.827Z,6.67
2017-10-10T17:24:39.374Z,8.33
2017-10-10T17:27:07.049Z,6.63
2017-10-10T17:29:35.744Z,8.83
2017-10-10T17:32:04.216Z,8.17
2017-10-10T17:34:32.289Z,7.60
2017-10-10T17:37:00.037Z,14.27
2017-10-10T17:39:27.596Z,7.17
2017-10-10T17:41:56.210Z,6.87
2017-10-10T17:44:23.861Z,8.00
2017-10-10T17:46:52.424Z,10.10
2017-10-10T17:49:21.579Z,4.10
2017-10-10T17:51:49.177Z,4.00
2017-10-10T17:54:16.773Z,4.27
2017-10-10T17:56:44.515Z,4.00
2017-10-10T17:59:12.112Z,4.60
2017-10-10T18:01:40.228Z,3.40
2017-10-10T18:04:08.415Z,3.70
2017-10-10T18:06:36.277Z,3.90
2017-10-10T18:09:03.905Z,3.70
2017-10-10T18:11:31.579Z,3.77
2017-10-10T18:13:59.284Z,3.70
2017-10-10T18:16:28.049Z,3.83
2017-10-10T18:18:56.089Z,3.40
2017-10-10T18:21:24.703Z,3.70
2017-10-10T18:23:52.483Z,2.70
2017-10-10T18:26:20.640Z,4.10
2017-10-10T18:28:48.414Z,3.00
2017-10-10T18:31:16.231Z,4.33
2017-10-10T18:33:44.260Z,4.70
2017-10-10T18:36:13.232Z,4.27
2017-10-10T18:38:41.098Z,4.23
2017-10-10T18:41:09.737Z,4.80
2017-10-10T18:43:37.653Z,4.10
2017-10-10T18:46:05.519Z,4.00
2017-10-10T18:48:33.663Z,4.20
2017-10-10T18:51:01.463Z,4.27
2017-10-10T18:53:30.274Z,3.77
2017-10-10T18:55:58.312Z,3.80
2017-10-10T18:58:26.077Z,4.60
2017-10-10T19:00:54.223Z,4.60
2017-10-10T19:03:22.322Z,4.10
2017-10-10T19:05:50.086Z,3.80
2017-10-10T19:08:17.952Z,3.97
2017-10-10T19:10:45.932Z,3.23
2017-10-10T19:13:13.689Z,4.13
2017-10-10T19:15:41.449Z,3.70
2017-10-10T19:18:09.527Z,3.80
2017-10-10T19:20:36.505Z,2.77
2017-10-10T19:23:04.299Z,3.90
2017-10-10T19:25:32.298Z,2.93
2017-10-10T19:28:00.268Z,3.20
2017-10-10T19:30:28.038Z,2.40
2017-10-10T19:32:56.041Z,3.97
2017-10-10T19:35:24.585Z,3.40
2017-10-10T19:37:52.348Z,2.70
2017-10-10T19:40:20.176Z,3.53
2017-10-10T19:42:47.874Z,2.70
2017-10-10T19:45:16.869Z,2.50
2017-10-10T19:47:44.643Z,3.17
2017-10-10T19:50:12.391Z,3.80
2017-10-10T19:52:40.250Z,3.07
2017-10-10T19:55:08.025Z,2.70
2017-10-10T19:57:35.893Z,3.30
2017-10-10T20:00:03.861Z,2.80
2017-10-10T20:02:31.631Z,2.80
2017-10-10T20:04:59.386Z,4.47
2017-10-10T20:07:27.258Z,2.70
2017-10-10T20:09:55.120Z,3.07
2017-10-10T20:12:22.906Z,3.50
2017-10-10T20:14:50.646Z,3.30
2017-10-10T20:17:18.452Z,3.37
2017-10-10T20:19:46.279Z,3.30
2017-10-10T20:22:14.146Z,3.50
2017-10-10T20:24:42.125Z,3.10
2017-10-10T20:27:10.697Z,3.70
2017-10-10T20:29:38.598Z,3.90
2017-10-10T20:32:06.431Z,4.83
2017-10-10T20:34:34.296Z,3.50
2017-10-10T20:37:02.054Z,3.60
2017-10-10T20:39:30.952Z,3.20
2017-10-10T20:41:58.814Z,3.47
2017-10-10T20:44:26.683Z,4.27
2017-10-10T20:46:54.751Z,4.10
2017-10-10T20:49:22.527Z,4.07
2017-10-10T20:51:50.282Z,3.00
2017-10-10T20:54:18.065Z,3.10
2017-10-10T20:56:45.710Z,3.10
2017-10-10T20:59:13.361Z,3.10
2017-10-10T21:01:41.645Z,3.70
2017-10-10T21:04:09.340Z,3.57
2017-10-10T21:06:37.080Z,4.03
2017-10-10T21:09:05.109Z,4.50
2017-10-10T21:11:32.701Z,3.63
2017-10-10T21:14:00.297Z,4.10
2017-10-10T21:16:28.186Z,4.17
2017-10-10T21:18:56.995Z,3.70
2017-10-10T21:21:24.857Z,4.63
2017-10-10T21:23:52.646Z,4.20
2017-10-10T21:26:20.412Z,3.63
2017-10-10T21:28:48.008Z,4.17
2017-10-10T21:31:15.899Z,4.40
2017-10-10T21:33:43.513Z,4.03
2017-10-10T21:36:11.126Z,3.80
2017-10-10T21:38:39.128Z,4.20
2017-10-10T21:41:06.688Z,3.93
2017-10-10T21:43:34.344Z,3.63
2017-10-10T21:46:02.119Z,5.10
2017-10-10T21:48:29.773Z,4.13
2017-10-10T21:50:57.312Z,3.60
2017-10-10T21:53:24.976Z,4.57
2017-10-10T21:55:52.656Z,4.73
2017-10-10T21:58:20.225Z,4.27
2017-10-10T22:00:47.999Z,4.20
2017-10-10T22:03:15.773Z,4.10
2017-10-10T22:05:43.356Z,4.17
2017-10-10T22:08:11.168Z,5.10
2017-10-10T22:10:38.677Z,4.80
2017-10-10T22:13:06.198Z,4.33
2017-10-10T22:15:33.747Z,5.23
2017-10-10T22:18:01.713Z,4.17
2017-10-10T22:20:29.271Z,5.40
2017-10-10T22:22:57.036Z,4.80
2017-10-10T22:25:24.595Z,4.43
2017-10-10T22:27:52.101Z,4.60
2017-10-10T22:30:19.898Z,4.77
2017-10-10T22:32:47.409Z,5.43
2017-10-10T22:35:14.918Z,5.80
2017-10-10T22:37:42.504Z,4.67
2017-10-10T22:40:10.051Z,5.07
2017-10-10T22:42:37.611Z,4.80
2017-10-10T22:45:05.169Z,4.57
2017-10-10T22:47:32.675Z,4.70
2017-10-10T22:50:00.187Z,4.83
2017-10-10T22:52:27.926Z,4.30
2017-10-10T22:54:55.459Z,3.97
2017-10-10T22:57:23.069Z,4.87
2017-10-10T22:59:50.750Z,3.80
2017-10-10T23:02:18.256Z,4.37
2017-10-10T23:04:45.770Z,4.30
2017-10-10T23:07:13.610Z,3.60
2017-10-10T23:09:41.171Z,4.17
2017-10-10T23:12:08.730Z,4.30
2017-10-10T23:14:36.492Z,4.23
2017-10-10T23:17:04.007Z,4.07
2017-10-10T23:19:31.561Z,5.00
2017-10-10T23:21:59.404Z,4.77
2017-10-10T23:24:26.922Z,4.77
2017-10-10T23:26:54.443Z,4.80
2017-10-10T23:29:22.260Z,4.90
2017-10-10T23:31:49.820Z,5.03
2017-10-10T23:34:17.377Z,5.30
2017-10-10T23:36:44.935Z,5.10
2017-10-10T23:39:12.498Z,6.70
2017-10-10T23:41:40.012Z,5.13
2017-10-10T23:44:07.713Z,5.53
2017-10-10T23:46:35.274Z,5.90
2017-10-10T23:49:02.782Z,6.00
2017-10-10T23:51:30.479Z,5.90
2017-10-10T23:53:58.054Z,6.40
2017-10-10T23:56:25.570Z,6.07
2017-10-10T23:58:53.478Z,5.47
